SAVT/REL METAR and TAF weather

Enter ICAO airport designator
Station Type Date Time Source
SAVT METAR 2020/07/02 16:30 UTC NOAA

SAVT 021630Z VRB03KT 9999 SCT010 SCT015 06/05 Q1014


Station Type Date Time Source
SAVT Decoded METAR 2020/07/02 16:30 UTC NOAA

Trelew Aerodrome, Argentina (SAVT) 43-12S 065-16W 43M
Jul 02, 2020 - 12:30 PM EDT / 2020.07.02 1630 UTC
Wind: Variable at 3 MPH (3 KT):0
Visibility: greater than 7 mile(s):0
Sky conditions: partly cloudy
Temperature: 42 F (6 C)
Dew Point: 41 F (5 C)
Relative Humidity: 93%
Pressure (altimeter): 29.94 in. Hg (1014 hPa)
ob: SAVT 021630Z VRB03KT 9999 SCT010 SCT015 06/05 Q1014
cycle: 16

Station Type Date Time Source
SAVT TAF 2019/04/29 08:53 UTC NOAA

TAF
AMD SAVT 290800Z 2908/3006 27025G40KT 9999 SCT020 BKN035 TX16/2919Z TN07/3006Z
TEMPO 2911/2914 7000 -SHRA OVC020 SCT030
BECMG 3002/3004 25015KT

Example: see airport list